Terminal Aerodrome Forecast
Issued by NWS

Home | Current Version | Previous Version | Text Only | Print | Product List | Glossary On
Versions: 1 2 3 4 5 6 7 8 9 10 11 12 13 14
285
FTUS44 KLZK 252322
TAFHOT
TAF
KHOT 252322Z 2600/2624 22007KT P6SM VCSH SCT050
     FM260200 VRB03KT P6SM SCT250
     FM261500 22006KT P6SM SKC=

USA.gov is the U.S. government's official web portal to all federal, state and local government web resources and services.